Crooked Creek Research Lab Weather observations

Data are for 10 minute period ending at time listed.
 Day   Time    Ave.   Ave.  Ave.  Vector   Max.   Stn.    Total    Solar   Ave.   Snow 
  of    of     Air    Rel.  Wind   Wind    Wind   Baro.  Precip.   Rad.    Soil   Depth
Year   Day     Temp.  Hum.  Speed  Dir.    Gust   Pres.                    Temp.       
2016   (PST)    F      %     mph   deg.    mph     mb.     in.     W/m2     F      in. 
---------------------------------------------------------------------------------------  
 177   18:30   58.5    23    0.2    67      2.3   700.9    0.00      16    999.0    -0.2
 177   18:40   58.5    23    1.7    25      4.7   701.2    0.00      14    999.0    -0.2
 177   18:50   58.2    24    0.8   346      3.4   701.5    0.00      12    999.0    -0.2
 177   19:00   56.7    26    0.8    86      2.1   701.0    0.00       9    999.0    -0.2
 177   19:10   55.6    30    0.3   134      2.0   701.1    0.00       6    999.0    -0.4
 177   19:20   53.6    33    0.5   235      1.9   701.0    0.00       3    999.0    -0.2
 177   19:30   51.7    35    2.4   236      5.1   700.7    0.00       1    999.0    -0.4
 177   19:40   50.8    34    1.3   218      5.0   700.7    0.00       0    999.0    -0.2
 177   19:50   49.9    36    1.9   223      4.1   700.7    0.00       0    999.0    -0.3
 177   20:00   48.0    37    2.3   226      4.7   700.4    0.00       0    999.0    -0.3
 177   20:10   47.9    37    1.2   222      2.7   700.4    0.00       0    999.0    -0.3
 177   20:20   47.4    37    1.7   223      3.6   700.6    0.00       0    999.0    -0.3
 177   20:30   47.6    37    1.5   172      3.9   700.7    0.00       0    999.0    -0.4
 177   20:40   47.0    38    2.1   222      4.7   700.8    0.00       0    999.0    -0.4
 177   20:50   45.8    39    1.4   214      3.6   700.8    0.00       0    999.0    -0.4
 177   21:00   45.9    39    0.3   234      2.7   700.9    0.00       0    999.0    -0.5
 177   21:10   45.3    39    1.3   226      4.1   700.8    0.00       0    999.0    -0.4
 177   21:20   45.5    39    0.5   224      2.2   701.0    0.00       0    999.0    -0.6
 177   21:30   44.4    41    0.6   223      1.9   700.9    0.00       0    999.0    -0.6
 177   21:40   44.0    41    0.2   223      1.1   701.2    0.00       0    999.0    -0.6
 177   21:50   43.9    41    1.3   228      4.5   701.2    0.00       0    999.0    -0.6
 177   22:00   43.6    41    1.2   229      3.4   701.3    0.00       0    999.0    -0.5
 177   22:10   44.0    41    0.5   144      1.8   701.0    0.00       0    999.0    -0.7
 177   22:20   43.1    42    1.5   188      3.7   701.2    0.00       0    999.0    -0.5
 177   22:30   43.9    40    0.7   194      3.4   701.4    0.00       0    999.0    -0.6
 177   22:40   44.8    39    0.3   294      1.5   701.3    0.00       0    999.0    -0.8
 177   22:50   44.4    38    0.9   187      2.8   701.2    0.00       0    999.0    -0.7
 177   23:00   44.1    38    1.3   195      5.6   701.1    0.00       0    999.0    -0.7
 177   23:10   44.1    38    1.3   180      3.5   701.1    0.00       0    999.0    -0.7
 177   23:20   44.3    38    1.6   169      3.7   701.2    0.00       0    999.0    -0.7
 177   23:30   43.9    38    1.3   142      3.0   701.2    0.00       0    999.0    -0.8
 177   23:40   43.6    39    2.1   136      4.2   701.0    0.00       0    999.0    -0.8
 177   23:50   42.4    40    0.7   117      3.0   701.3    0.00       0    999.0    -0.7
 178    0:00   41.3    43    0.9   137      3.3   700.9    0.00       0    999.0    -0.7
 178    0:10   40.9    45    1.2   113      2.6   701.0    0.00       0    999.0    -0.7
 178    0:20   41.5    45    1.7   113      2.9   701.2    0.00       0    999.0    -0.7
 178    0:30   41.3    46    1.1   116      2.7   700.9    0.00       0    999.0    -0.7
 178    0:40   40.9    46    0.9   116      2.1   700.9    0.00       0    999.0    -0.6
 178    0:50   40.8    47    1.0   134      3.1   700.8    0.00       0    999.0    -0.7
 178    1:00   40.3    48    0.7   213      2.9   700.9    0.00       0    999.0    -0.6
 178    1:10   40.3    47    0.7   134      2.1   701.0    0.00       0    999.0    -0.6
 178    1:20   40.4    47    0.5   175      1.4   700.9    0.00       0    999.0    -0.7
 178    1:30   40.4    47    2.0   123      3.1   700.9    0.00       0    999.0    -0.7
 178    1:40   39.4    50    0.7   207      2.3   700.9    0.00       0    999.0    -0.6
 178    1:50   39.8    49    0.3   234      1.9   700.6    0.00       0    999.0    -0.7
 178    2:00   39.9    49    0.2   234      1.0   700.8    0.00       0    999.0    -0.6
 178    2:10   39.7    50    0.2   236      2.0   700.5    0.00       0    999.0    -0.7
 178    2:20   39.4    51    0.0   238      0.6   700.8    0.00       0    999.0    -0.8
 178    2:30   38.7    53    0.4   238      1.5   700.8    0.00       0    999.0    -0.7
 178    2:40   38.0    54    1.2   168      3.0   700.8    0.00       0    999.0    -0.7
 178    2:50   39.3    52    1.3   116      3.3   701.1    0.00       0    999.0    -0.7
 178    3:00   38.5    54    0.2   218      1.7   701.0    0.00       0    999.0    -0.7
 178    3:10   38.5    54    0.1   236      0.9   701.0    0.00       0    999.0    -0.6
 178    3:20   38.5    54    0.0     0      0.0   700.8    0.00       0    999.0    -0.7
 178    3:30   38.9    53    0.0   225      0.7   701.0    0.00       0    999.0    -0.7
 178    3:40   38.3    55    0.1   226      1.1   700.9    0.00       0    999.0    -0.7
 178    3:50   38.8    54    0.9   130      3.1   701.2    0.00       0    999.0    -0.7
 178    4:00   38.5    55    0.3   134      2.2   701.2    0.00       0    999.0    -0.7
 178    4:10   38.1    55    0.3   137      2.1   701.2    0.00       0    999.0    -0.7
 178    4:20   38.6    54    0.7   150      2.2   701.3    0.00       1    999.0    -0.8
 178    4:30   37.8    56    0.0   200      0.3   701.1    0.00       2    999.0    -0.7
 178    4:40   38.2    55    0.8   117      2.5   701.3    0.00       5    999.0    -0.7
 178    4:50   38.5    55    1.7   122      2.9   701.3    0.00       9    999.0    -0.9
 178    5:00   37.9    57    1.1   135      2.7   701.5    0.00      13    999.0    -0.7
 178    5:10   39.0    55    1.5   118      3.7   701.4    0.00      16    999.0    -0.8
 178    5:20   40.0    54    1.8   120      2.9   701.3    0.00      19    999.0    -0.6
 178    5:30   40.9    55    2.2   122      3.1   701.6    0.00      21    999.0    -0.8
 178    5:40   40.6    58    1.7   124      2.9   701.3    0.00      24    999.0    -0.8
 178    5:50   42.6    56    2.1   124      3.0   701.6    0.00      27    999.0    -0.8
 178    6:00   42.6    58    1.5   136      2.6   701.6    0.00      29    999.0    -0.7
 178    6:10   44.2    57    3.0   127      3.7   701.5    0.00      32    999.0    -0.7
 178    6:20   46.2    51    2.5   123      3.7   701.4    0.00     127    999.0    -0.7
 178    6:30   50.1    42    1.8   117      3.4   701.4    0.00     307    999.0    -0.6
 178    6:40   54.4    33    2.7   115      4.7   701.8    0.00     344    999.0    -0.6
 178    6:50   58.0    28    2.4   124      4.9   702.0    0.00     378    999.0    -0.6
 178    7:00   60.0    23    2.7   134      6.2   702.0    0.00     413    999.0    -0.6
 178    7:10   60.4    21    3.8   125      8.1   702.0    0.00     446    999.0    -0.6
 178    7:20   60.9    21    3.6   130      9.6   701.4    0.00     480    999.0    -0.7
 178    7:30   61.4    20    4.2   132      8.0   701.5    0.00     512    999.0    -0.6
 178    7:40   62.3    19    3.7   121      8.7   701.8    0.00     544    999.0    -0.7
 178    7:50   63.1    19    4.2   166     11.8   701.7    0.00     574    999.0    -0.7
 178    8:00   63.6    18    4.4   154     14.4   701.6    0.00     604    999.0    -0.7
 178    8:10   64.4    18    4.5   192     12.6   701.5    0.00     634    999.0    -0.7
 178    8:20   64.7    17    5.9   172     12.3   701.3    0.00     664    999.0    -0.7
 178    8:30   65.1    16    3.8   171      8.0   701.5    0.00     691    999.0    -0.7
 178    8:40   65.2    16    5.2   164     15.6   701.4    0.00     718    999.0    -0.7
 178    8:50   65.9    16    4.5   138     12.6   701.4    0.00     744    999.0    -0.7
 178    9:00   65.8    15    5.9   206     13.6   701.4    0.00     766    999.0    -0.7
 178    9:10   66.0    16    5.2   211     12.5   701.6    0.00     789    999.0    -0.8
 178    9:20   66.7    16    4.5   148     12.0   701.8    0.00     809    999.0    -0.7
 178    9:30   67.0    15    3.4   175     10.2   701.9    0.00     831    999.0    -0.7
 178    9:40   67.4    15    5.5   142     13.2   702.2    0.00     851    999.0    -0.7
 178    9:50   67.0    15    6.1   171     14.8   702.1    0.00     870    999.0    -0.7
 178   10:00   66.6    15    6.2   182     16.0   702.0    0.00     886    999.0    -0.6
 178   10:10   67.0    14    5.6   151     11.8   701.9    0.00     902    999.0    -0.6
 178   10:20   67.1    15    5.5   195     12.9   702.2    0.00     915    999.0    -0.6
 178   10:30   67.8    14    5.8   199     18.0   702.1    0.00     927    999.0    -0.8
 178   10:40   68.5    14    3.4   186     12.7   702.2    0.00     938    999.0    -0.8
 178   10:50   68.6    14    5.5   221     17.6   702.3    0.00     947    999.0    -0.7
 178   11:00   68.2    14    6.5   193     17.1   702.3    0.00     954    999.0    -0.7
 178   11:10   68.0    14    7.3   237     16.5   702.5    0.00     960    999.0    -0.5
 178   11:20   67.0    13    5.5   224     14.1   702.3    0.00     966    999.0    -0.7
 178   11:30   67.5    14    4.9   222     12.1   702.8    0.00     970    999.0    -0.6
 178   11:40   68.9    14    3.4   218     15.3   702.8    0.00     970    999.0    -0.7
 178   11:50   68.2    14    7.5   260     13.6   702.6    0.00     969    999.0    -0.6
 178   12:00   68.8    15    5.5   275     13.5   702.4    0.00     970    999.0    -0.5
 178   12:10   69.2    15    4.8   243     14.3   702.8    0.00     968    999.0    -0.6
 178   12:20   69.1    15    6.4   251     12.6   702.8    0.00     962    999.0    -0.7
 178   12:30   68.6    15    7.1   284     17.8   702.6    0.00     958    999.0    -0.5
 178   12:40   69.0    15    7.0   237     14.9   702.8    0.00     954    999.0    -0.6
 178   12:50   68.5    14    5.6   235     11.5   702.7    0.00     945    999.0    -0.6
 178   13:00   69.7    15    5.2   277     14.3   702.6    0.00     938    999.0    -0.6
 178   13:10   69.8    14    9.0   264     16.9   703.0    0.00     928    999.0    -0.6
 178   13:20   69.4    14    7.6   269     14.2   702.7    0.00     918    999.0    -0.6
 178   13:30   70.3    14    7.0   253     19.1   702.7    0.00     903    999.0    -0.6
 178   13:40   70.2    14    7.8   264     16.7   702.9    0.00     889    999.0    -0.5
 178   13:50   70.2    14    8.8   287     15.7   703.0    0.00     875    999.0    -0.5
 178   14:00   70.5    13    6.0   267     12.1   702.8    0.00     857    999.0    -0.7
 178   14:10   69.7    14    6.3   251     12.9   702.8    0.00     835    999.0    -0.8
 178   14:20   70.7    14    6.3   265     16.4   703.0    0.00     816    999.0    -0.5
 178   14:30   71.5    13    5.0   259     14.0   702.9    0.00     794    999.0    -0.7
 178   14:40   70.4    13    4.2   133     12.3   703.3    0.00     771    999.0    -0.5
 178   14:50   71.1    14    6.4   247     14.8   702.9    0.00     746    999.0    -0.6
 178   15:00   70.8    14    6.5   235     13.3   702.9    0.00     720    999.0    -0.7
 178   15:10   70.8    13    6.4   226     14.0   702.8    0.00     693    999.0    -0.7
 178   15:20   70.1    14    7.4   261     18.5   702.5    0.00     668    999.0    -0.6
 178   15:30   71.2    14    5.7   277     11.4   702.9    0.00     640    999.0    -0.5
 178   15:40   71.2    13    5.3   204     12.3   702.4    0.00     611    999.0    -0.8
 178   15:50   71.0    14    5.9   253     13.7   702.5    0.00     583    999.0    -0.7
 178   16:00   71.3    13    3.2   242      9.6   702.8    0.00     549    999.0    -0.7
 178   16:10   70.7    14    7.8   248     14.5   702.8    0.00     523    999.0    -0.8
 178   16:20   71.1    13    4.2   259     10.9   702.5    0.00     493    999.0    -0.8
 178   16:30   71.0    14    5.0   273      9.9   702.4    0.00     427    999.0    -0.7
 178   16:40   70.0    15    6.5   242     11.7   702.7    0.00     278    999.0    -0.7
 178   16:50   68.1    15    4.6   251      9.2   702.7    0.00     145    999.0    -0.7
 178   17:00   68.3    16    5.8   245     10.6   703.0    0.00     303    999.0    -0.6
 178   17:10   69.4    15    6.4   264     10.7   702.9    0.00     343    999.0    -0.6
 178   17:20   70.2    15    3.4   280     11.8   702.8    0.00     295    999.0    -0.7
 178   17:30   69.6    15    5.4   286     12.6   702.8    0.00     260    999.0    -0.7
 178   17:40   69.5    16    4.6   259      9.3   702.9    0.00     218    999.0    -0.8
 178   17:50   67.1    17    3.9   267      7.6   702.7    0.00      38    999.0    -0.7
 178   18:00   65.8    18    4.9   250      9.2   702.3    0.00      34    999.0    -0.5
 178   18:10   65.2    18    5.1   242      9.9   702.1    0.00      31    999.0    -0.5
 178   18:20   64.2    20    3.8   265      7.6   702.3    0.00      28    999.0    -0.5

Return to Crooked Creek Research Lab graphs page.


Western Regional Climate Center,wrcc@dri.edu